Pringle, South Dakota
Current Conditions -  °F | °C
As of 1:53 AM on Saturday 29 Nov 2014 (Local Time) from KCUT Reporting Station
Clear Clear  
Wind Chill: 38°   Ceiling: Unl
Heat Index: 43°   Visibility: 10mi
Dew Point: 14°   Wind: 8mph
Humidity: 31%   Direction: 250°WSW
Pressure: 29.56"   Gusts: NA
Location:  43.61°N, 103.59°W
Report Text: KCUT 290853Z AUTO 25007KT 10SM CLR 06/M10 A2956 RMK AO2 SLP982 T00611100 56004
Loading
Personal Weather Stations






























Interactive Weather Map New forecast layout! Learn more

10-Day Weather Forecast

Advertisements
Track Severe Weather on mobile